This is the latest recevied weather packets stored in our database for station/object SR5NLK-1. If no packets are shown the sender has not sent any weather packets the latest 1 day(s).
| Time | Temp. | Humidity | Pressure | Rain* | Wind** | Luminosity | Snow |
|---|---|---|---|---|---|---|---|
| 1836274840 | 13.89° C | 91% | 1057.9 hPa | 0 mm | 0.89 m/s, 157° | - | - |
| 1836274601 | 13.89° C | 91% | 1011.4 hPa | 0 mm | 0 m/s | - | - |
| 1836274451 | 13.89° C | 91% | 1056.3 hPa | 0 mm | 0 m/s | - | - |
| 1836274301 | 13.89° C | 91% | 1045.3 hPa | 0 mm | 0.89 m/s, 157° | - | - |
| 1836274151 | 13.89° C | 91% | 1040.6 hPa | 0 mm | 0.89 m/s, 180° | - | - |
| 1836274015 | 13.89° C | 91% | 1050.1 hPa | 0 mm | 0.89 m/s, 157° | - | - |
| 1836274001 | 13.89° C | 91% | 1050.1 hPa | 0 mm | 0.89 m/s, 157° | - | - |
| 1778028451 | 11.67° C | 75% | 1042.8 hPa | 0 mm | 0.89 m/s, 270° | - | - |
| 1778028159 | - | - | - | - | 0.89 m/s, 22° | - | - |
| 1778028151 | 11.67° C | 75% | 1027.1 hPa | 0 mm | 0.89 m/s, 22° | - | - |
| 1778027851 | 12.22° C | 75% | 1012.9 hPa | 0 mm | 2.24 m/s, 22° | - | - |
| 1778027551 | 12.22° C | 75% | 1060.3 hPa | 0 mm | 0.45 m/s, 67° | - | - |
| 1778027251 | 12.22° C | 75% | 1042.1 hPa | 0 mm | 0.89 m/s, 0° | - | - |
| 1778026951 | 12.22° C | 75% | 1053.4 hPa | 0 mm | 0 m/s | - | - |
| 1778026711 | 12.22° C | 75% | 1080.8 hPa | 0 mm | 0.45 m/s, 45° | - | - |
| 1778026651 | 12.22° C | 75% | 1060.9 hPa | 0 mm | 0.45 m/s, 22° | - | - |
| 1778026351 | 12.22° C | 75% | 1043.3 hPa | 0 mm | 1.34 m/s, 45° | - | - |
| 1778026051 | 12.78° C | 75% | 989.4 hPa | 0 mm | 1.79 m/s, 0° | - | - |
| 1778025751 | 12.78° C | 75% | 1049 hPa | 0 mm | 0.89 m/s, 0° | - | - |
| 1778025451 | 12.78° C | 75% | 1083.2 hPa | 0 mm | 0.89 m/s, 22° | - | - |
| 1778025151 | 12.78° C | 75% | 956 hPa | 0 mm | 2.24 m/s, 67° | - | - |
| 1778024851 | 12.78° C | 75% | 964.8 hPa | 0 mm | 1.79 m/s, 22° | - | - |
| 1778024731 | 12.78° C | 75% | 1032 hPa | 0 mm | 2.24 m/s, 22° | - | - |
| 1778024551 | 12.78° C | 75% | 1078.4 hPa | 0 mm | 0.89 m/s, 90° | - | - |
| 1778024251 | 12.78° C | 75% | 1050.2 hPa | 0 mm | 1.34 m/s, 45° | - | - |
* Rain latest hour (hover to see other rain measurements)
** Current wind speed in m/s (hover to see current wind gust speed)